.
WxDataArchive / Data Records for 2016-01-27
2016-01-26 January 2016 2016-01-28

Data Records for Wednesday, 27 January 2016

Time	Temp	Chill	HIndex	Humid	Dewpt	 Wind 	HiWind	WindDir	Rain 	Barom
-----	----	-----	------	-----	-----	------	------	-------	-----	-----
00:00	27.6	27.6	27.6	67	18.1	1	4	270	0.00	30.177 
00:05	27.5	27.5	27.5	67	18.0	2	4	270	0.00	30.177 
00:10	27.3	27.3	27.3	67	17.8	2	5	270	0.00	30.177 
00:15	27.2	27.2	27.2	66	17.4	2	4	270	0.00	30.175 
00:20	27.0	27.0	27.0	66	17.2	2	4	270	0.00	30.175 
00:25	26.9	26.9	26.9	67	17.4	1	4	270	0.00	30.175 
00:30	26.7	26.7	26.7	67	17.2	2	4	270	0.00	30.178 
00:35	26.6	26.6	26.6	68	17.5	2	6	270	0.00	30.178 
00:40	26.6	26.6	26.6	68	17.5	1	4	270	0.00	30.178 
00:45	26.3	26.3	26.3	69	17.5	0	2	248	0.00	30.179 
00:50	26.1	26.1	26.1	69	17.3	0	3	248	0.00	30.179 
00:55	26.1	26.1	26.1	70	17.7	0	2	248	0.00	30.179 
01:00	26.0	26.0	26.0	71	17.9	1	3	248	0.00	30.186 
01:05	25.8	25.8	25.8	71	17.7	1	3	248	0.00	30.186 
01:10	25.7	25.7	25.7	72	17.9	1	4	248	0.00	30.186 
01:15	25.7	25.7	25.7	72	17.9	0	3	248	0.00	30.187 
01:20	25.6	25.6	25.6	72	17.8	1	3	248	0.00	30.187 
01:25	25.6	25.6	25.6	72	17.8	0	2	248	0.00	30.187 
01:30	25.6	25.6	25.6	72	17.8	1	3	248	0.00	30.186 
01:35	25.6	25.6	25.6	72	17.8	0	2	248	0.00	30.186 
01:40	25.6	25.6	25.6	72	17.8	0	3	248	0.00	30.186 
01:45	25.6	25.6	25.6	72	17.8	1	3	248	0.00	30.189 
01:50	25.6	25.6	25.6	73	18.2	0	3	270	0.00	30.189 
01:55	25.6	25.6	25.6	73	18.2	2	5	248	0.00	30.189 
02:00	25.8	25.8	25.8	73	18.4	2	4	248	0.00	30.197 
02:05	26.0	26.0	26.0	72	18.2	1	4	248	0.00	30.197 
02:10	26.1	26.1	26.1	72	18.3	1	3	248	0.00	30.197 
02:15	26.3	26.3	26.3	71	18.2	1	5	248	0.00	30.195 
02:20	26.4	26.4	26.4	71	18.3	1	3	248	0.00	30.195 
02:25	26.4	26.4	26.4	71	18.3	1	3	248	0.00	30.195 
02:30	26.4	26.4	26.4	71	18.3	1	3	248	0.00	30.201 
02:35	26.6	26.6	26.6	71	18.5	1	4	248	0.00	30.201 
02:40	26.6	26.6	26.6	71	18.5	0	3	270	0.00	30.201 
02:45	26.6	26.6	26.6	71	18.5	1	2	270	0.00	30.203 
02:50	26.6	26.6	26.6	71	18.5	1	4	270	0.00	30.203 
02:55	26.7	26.7	26.7	70	18.3	1	3	270	0.00	30.203 
03:00	26.9	26.9	26.9	70	18.4	1	5	270	0.00	30.203 
03:05	26.9	26.9	26.9	69	18.1	2	5	270	0.00	30.203 
03:10	27.0	27.0	27.0	69	18.2	1	3	270	0.00	30.203 
03:15	27.0	27.0	27.0	69	18.2	1	3	270	0.00	30.203 
03:20	27.0	27.0	27.0	68	17.9	1	4	270	0.00	30.203 
03:25	27.0	27.0	27.0	68	17.9	1	4	292	0.00	30.203 
03:30	27.0	27.0	27.0	68	17.9	1	3	248	0.00	30.207 
03:35	27.2	27.2	27.2	68	18.1	2	4	248	0.00	30.207 
03:40	27.2	27.2	27.2	67	17.7	1	4	248	0.00	30.207 
03:45	27.2	27.2	27.2	67	17.7	1	3	270	0.00	30.213 
03:50	27.2	27.2	27.2	66	17.4	2	4	292	0.00	30.213 
03:55	27.2	27.2	27.2	66	17.4	2	5	292	0.00	30.213 
04:00	27.2	27.2	27.2	66	17.4	1	4	270	0.00	30.216 
04:05	27.2	27.2	27.2	66	17.4	1	3	270	0.00	30.216 
04:10	27.2	27.2	27.2	66	17.4	1	4	270	0.00	30.216 
04:15	27.2	27.2	27.2	66	17.4	0	2	270	0.00	30.217 
04:20	27.2	27.2	27.2	66	17.4	1	4	270	0.00	30.217 
04:25	27.0	27.0	27.0	65	16.8	1	4	270	0.00	30.217 
04:30	27.0	27.0	27.0	65	16.8	1	3	270	0.00	30.221 
04:35	27.0	27.0	27.0	65	16.8	2	4	270	0.00	30.221 
04:40	27.0	27.0	27.0	65	16.8	2	4	270	0.00	30.221 
04:45	27.0	27.0	27.0	65	16.8	1	4	270	0.00	30.224 
04:50	26.9	26.9	26.9	65	16.7	1	4	292	0.00	30.224 
04:55	26.9	26.9	26.9	65	16.7	2	4	270	0.00	30.224 
05:00	26.7	26.7	26.7	64	16.2	2	3	270	0.00	30.233 
05:05	26.7	26.7	26.7	65	16.5	1	4	270	0.00	30.233 
05:10	26.7	26.7	26.7	65	16.5	1	3	270	0.00	30.233 
05:15	26.7	26.7	26.7	65	16.5	0	2	270	0.00	30.234 
05:20	26.7	26.7	26.7	65	16.5	1	6	270	0.00	30.234 
05:25	26.6	26.6	26.6	65	16.4	1	4	315	0.00	30.234 
05:30	26.6	26.6	26.6	65	16.4	1	3	315	0.00	30.241 
05:35	26.6	26.6	26.6	65	16.4	0	2	315	0.00	30.241 
05:40	26.6	26.6	26.6	65	16.4	1	3	292	0.00	30.241 
05:45	26.6	26.6	26.6	65	16.4	2	4	270	0.00	30.239 
05:50	26.6	26.6	26.6	65	16.4	2	4	270	0.00	30.239 
05:55	26.6	26.6	26.6	65	16.4	2	4	270	0.00	30.239 
06:00	26.4	26.4	26.4	65	16.3	2	5	315	0.00	30.249 
06:05	26.4	26.4	26.4	65	16.3	1	3	315	0.00	30.249 
06:10	26.4	26.4	26.4	65	16.3	1	3	315	0.00	30.249 
06:15	26.6	26.6	26.6	65	16.4	1	3	315	0.00	30.254 
06:20	26.6	26.6	26.6	65	16.4	1	3	315	0.00	30.254 
06:25	26.4	26.4	26.4	65	16.3	2	5	292	0.00	30.254 
06:30	26.4	26.4	26.4	65	16.3	1	3	270	0.00	30.260 
06:35	26.4	26.4	26.4	65	16.3	0	2	270	0.00	30.260 
06:40	26.4	26.4	26.4	65	16.3	0	2	270	0.00	30.260 
06:45	26.4	26.4	26.4	65	16.3	1	3	270	0.00	30.268 
06:50	26.3	26.3	26.3	65	16.2	1	3	270	0.00	30.268 
06:55	26.3	26.3	26.3	65	16.2	0	2	270	0.00	30.268 
07:00	26.3	26.3	26.3	65	16.2	0	2	270	0.00	30.269 
07:05	26.3	26.3	26.3	65	16.2	1	3	270	0.00	30.269 
07:10	26.3	26.3	26.3	65	16.2	1	3	292	0.00	30.269 
07:15	26.3	26.3	26.3	66	16.5	0	2	292	0.00	30.268 
07:20	26.3	26.3	26.3	65	16.2	0	2	292	0.00	30.268 
07:25	26.3	26.3	26.3	65	16.2	1	4	248	0.00	30.268 
07:30	26.3	26.3	26.3	65	16.2	1	3	292	0.00	30.265 
07:35	26.3	26.3	26.3	65	16.2	1	3	292	0.00	30.265 
07:40	26.3	26.3	26.3	65	16.2	0	3	292	0.00	30.265 
07:45	26.3	26.3	26.3	65	16.2	1	3	292	0.00	30.270 
07:50	26.3	26.3	26.3	65	16.2	2	4	292	0.00	30.270 
07:55	26.1	26.1	26.1	65	16.0	1	3	270	0.00	30.270 
08:00	26.0	26.0	26.0	65	15.9	0	2	270	0.00	30.267 
08:05	25.7	25.7	25.7	66	15.9	0	2	270	0.00	30.267 
08:10	25.4	25.4	25.4	67	16.0	0	1	270	0.00	30.267 
08:15	25.3	25.3	25.3	67	15.9	0	1	270	0.00	30.270 
08:20	25.1	25.1	25.1	68	16.1	0	1	270	0.00	30.270 
08:25	25.0	25.0	25.0	69	16.3	0	1	270	0.00	30.270 
08:30	25.0	25.0	25.0	69	16.3	0	2	270	0.00	30.269 
08:35	25.1	25.1	25.1	69	16.4	0	1	270	0.00	30.269 
08:40	25.3	25.3	25.3	69	16.6	0	1	270	0.00	30.269 
08:45	25.4	25.4	25.4	69	16.7	0	1	270	0.00	30.270 
08:50	25.6	25.6	25.6	69	16.9	0	1	270	0.00	30.270 
08:55	25.7	25.7	25.7	69	17.0	0	1	270	0.00	30.270 
09:00	26.0	26.0	26.0	69	17.2	0	2	270	0.00	30.271 
09:05	26.1	26.1	26.1	68	17.0	0	2	270	0.00	30.271 
09:10	26.1	26.1	26.1	68	17.0	0	3	270	0.00	30.271 
09:15	26.1	26.1	26.1	68	17.0	0	2	270	0.00	30.273 
09:20	26.1	26.1	26.1	68	17.0	0	2	270	0.00	30.273 
09:25	26.1	26.1	26.1	68	17.0	0	2	270	0.00	30.273 
09:30	26.3	26.3	26.3	68	17.2	0	2	270	0.00	30.278 
09:35	26.3	26.3	26.3	68	17.2	0	4	248	0.00	30.278 
09:40	26.4	26.4	26.4	67	17.0	0	2	248	0.00	30.278 
09:45	26.4	26.4	26.4	67	17.0	1	3	248	0.00	30.275 
09:50	26.6	26.6	26.6	66	16.8	0	3	248	0.00	30.275 
09:55	26.6	26.6	26.6	66	16.8	0	3	248	0.00	30.275 
10:00	26.7	26.7	26.7	65	16.5	0	2	248	0.00	30.276 
10:05	26.7	26.7	26.7	65	16.5	1	4	248	0.00	30.276 
10:10	26.9	26.9	26.9	64	16.4	1	3	248	0.00	30.276 
10:15	27.0	27.0	27.0	63	16.1	1	3	248	0.00	30.275 
10:20	27.2	27.2	27.2	62	15.9	1	3	248	0.00	30.275 
10:25	27.2	27.2	27.2	61	15.6	1	5	292	0.00	30.275 
10:30	27.2	27.2	27.2	60	15.2	2	4	270	0.00	30.272 
10:35	27.2	27.2	27.2	60	15.2	1	4	292	0.00	30.272 
10:40	27.2	27.2	27.2	60	15.2	1	3	292	0.00	30.272 
10:45	27.3	27.3	27.3	60	15.3	1	3	270	0.00	30.273 
10:50	27.5	27.5	27.5	59	15.1	1	2	270	0.00	30.273 
10:55	27.6	27.6	27.6	59	15.2	1	3	270	0.00	30.273 
11:00	27.8	27.8	27.8	59	15.4	1	2	270	0.00	30.271 
11:05	27.9	27.9	27.9	59	15.5	0	2	270	0.00	30.271 
11:10	27.8	27.8	27.8	58	15.0	2	4	270	0.00	30.271 
11:15	27.8	27.8	27.8	58	15.0	1	4	270	0.00	30.276 
11:20	27.8	27.8	27.8	58	15.0	1	3	270	0.00	30.276 
11:25	27.9	27.9	27.9	58	15.1	1	4	270	0.00	30.276 
11:30	27.9	27.9	27.9	58	15.1	1	3	248	0.00	30.274 
11:35	28.2	28.2	28.2	58	15.3	0	2	248	0.00	30.274 
11:40	28.2	28.2	28.2	58	15.3	0	3	248	0.00	30.274 
11:45	28.4	28.4	28.4	57	15.1	1	4	270	0.00	30.268 
11:50	28.2	28.2	28.2	57	14.9	1	3	270	0.00	30.268 
11:55	28.2	28.2	28.2	57	14.9	1	3	270	0.00	30.268 
12:00	28.4	28.4	28.4	58	15.5	0	2	270	0.00	30.267 
12:05	28.2	28.2	28.2	57	14.9	2	4	270	0.00	30.267 
12:10	28.1	28.1	28.1	58	15.3	1	3	270	0.00	30.267 
12:15	28.1	28.1	28.1	58	15.3	1	5	270	0.00	30.262 
12:20	28.2	28.2	28.2	59	15.7	0	3	270	0.00	30.262 
12:25	28.2	28.2	28.2	59	15.7	1	3	270	0.00	30.262 
12:30	28.1	28.1	28.1	59	15.6	1	3	270	0.00	30.256 
12:35	28.1	28.1	28.1	60	16.0	0	2	248	0.00	30.256 
12:40	28.1	28.1	28.1	60	16.0	0	3	248	0.00	30.256 
12:45	28.1	28.1	28.1	60	16.0	0	3	248	0.00	30.245 
12:50	28.1	28.1	28.1	60	16.0	0	2	248	0.00	30.245 
12:55	28.1	28.1	28.1	60	16.0	0	3	248	0.00	30.245 
13:00	27.9	27.9	27.9	60	15.8	1	3	248	0.00	30.240 
13:05	27.9	27.9	27.9	61	16.2	0	3	248	0.00	30.240 
13:10	27.9	27.9	27.9	61	16.2	0	3	248	0.00	30.240 
13:15	27.9	27.9	27.9	62	16.6	1	4	248	0.00	30.228 
13:20	27.9	27.9	27.9	62	16.6	0	1	248	0.00	30.228 
13:25	27.8	27.8	27.8	63	16.9	0	2	248	0.00	30.228 
13:30	27.8	27.8	27.8	63	16.9	1	3	248	0.00	30.216 
13:35	27.8	27.8	27.8	64	17.2	0	2	248	0.00	30.216 
13:40	27.6	27.6	27.6	64	17.0	0	2	248	0.00	30.216 
13:45	27.5	27.5	27.5	64	16.9	1	3	248	0.00	30.205 
13:50	27.3	27.3	27.3	64	16.8	1	4	248	0.00	30.205 
13:55	27.3	27.3	27.3	64	16.8	1	3	248	0.00	30.205 
14:00	27.3	27.3	27.3	64	16.8	1	3	248	0.00	30.194 
14:05	27.3	27.3	27.3	65	17.1	0	3	248	0.00	30.194 
14:10	27.3	27.3	27.3	65	17.1	0	1	248	0.00	30.194 
14:15	27.3	27.3	27.3	66	17.5	0	1	248	0.00	30.189 
14:20	27.3	27.3	27.3	66	17.5	0	3	248	0.00	30.189 
14:25	27.2	27.2	27.2	66	17.4	1	3	248	0.00	30.189 
14:30	27.0	27.0	27.0	66	17.2	1	5	270	0.00	30.180 
14:35	26.9	26.9	26.9	67	17.4	1	3	292	0.00	30.180 
14:40	26.9	26.9	26.9	67	17.4	0	3	0	0.00	30.180 
14:45	26.9	26.9	26.9	66	17.1	0	2	270	0.00	30.173 
14:50	27.0	27.0	27.0	65	16.8	1	4	270	0.00	30.173 
14:55	27.0	27.0	27.0	65	16.8	1	4	270	0.00	30.173 
15:00	27.0	27.0	27.0	65	16.8	1	3	270	0.00	30.164 
15:05	27.2	27.2	27.2	65	17.0	1	4	270	0.00	30.164 
15:10	27.2	27.2	27.2	65	17.0	0	3	225	0.00	30.164 
15:15	27.3	27.3	27.3	65	17.1	0	2	225	0.00	30.156 
15:20	27.3	27.3	27.3	65	17.1	1	3	225	0.00	30.156 
15:25	27.3	27.3	27.3	65	17.1	1	3	225	0.00	30.156 
15:30	27.3	27.3	27.3	65	17.1	0	4	225	0.00	30.147 
15:35	27.5	27.5	27.5	66	17.7	1	6	225	0.00	30.147 
15:40	27.5	27.5	27.5	66	17.7	1	3	248	0.00	30.147 
15:45	27.5	27.5	27.5	66	17.7	0	3	248	0.00	30.142 
15:50	27.5	27.5	27.5	67	18.0	0	2	248	0.00	30.142 
15:55	27.6	27.6	27.6	66	17.8	0	2	248	0.00	30.142 
16:00	27.6	27.6	27.6	66	17.8	0	2	248	0.00	30.137 
16:05	27.8	27.8	27.8	66	17.9	0	1	248	0.00	30.137 
16:10	27.9	27.9	27.9	65	17.7	1	5	248	0.00	30.137 
16:15	27.9	27.9	27.9	65	17.7	0	4	248	0.00	30.130 
16:20	27.9	27.9	27.9	65	17.7	0	3	248	0.00	30.130 
16:25	27.9	27.9	27.9	65	17.7	1	4	248	0.00	30.130 
16:30	27.9	27.9	27.9	65	17.7	0	3	248	0.00	30.126 
16:35	27.9	27.9	27.9	65	17.7	0	3	248	0.00	30.126 
16:40	27.9	27.9	27.9	66	18.0	0	1	248	0.00	30.126 
16:45	27.9	27.9	27.9	66	18.0	0	2	248	0.00	30.117 
16:50	27.9	27.9	27.9	65	17.7	0	3	248	0.00	30.117 
16:55	27.9	27.9	27.9	64	17.3	1	7	248	0.00	30.117 
17:00	27.9	27.9	27.9	63	17.0	1	3	248	0.00	30.112 
17:05	27.9	27.9	27.9	63	17.0	0	2	248	0.00	30.112 
17:10	27.9	27.9	27.9	63	17.0	1	4	248	0.00	30.112 
17:15	27.8	27.8	27.8	63	16.9	1	5	248	0.00	30.110 
17:20	27.8	27.8	27.8	63	16.9	1	3	248	0.00	30.110 
17:25	27.8	27.8	27.8	63	16.9	1	3	248	0.00	30.110 
17:30	27.6	27.6	27.6	62	16.3	1	3	248	0.00	30.108 
17:35	27.6	27.6	27.6	61	15.9	1	3	248	0.00	30.108 
17:40	27.5	27.5	27.5	60	15.5	1	5	248	0.00	30.108 
17:45	27.5	27.5	27.5	60	15.5	1	4	248	0.00	30.106 
17:50	27.3	27.3	27.3	61	15.7	0	1	248	0.00	30.106 
17:55	27.3	27.3	27.3	60	15.3	0	2	248	0.00	30.106 
18:00	27.3	27.3	27.3	60	15.3	0	3	248	0.00	30.107 
18:05	27.3	27.3	27.3	60	15.3	0	1	248	0.00	30.107 
18:10	27.5	27.5	27.5	60	15.5	0	2	248	0.00	30.107 
18:15	27.5	27.5	27.5	60	15.5	0	3	248	0.00	30.104 
18:20	27.5	27.5	27.5	60	15.5	1	5	248	0.00	30.104 
18:25	27.3	27.3	27.3	59	14.9	1	4	248	0.00	30.104 
18:30	27.2	27.2	27.2	59	14.8	1	5	248	0.00	30.102 
18:35	27.2	27.2	27.2	60	15.2	1	3	248	0.00	30.102 
18:40	27.0	27.0	27.0	60	15.0	0	4	248	0.00	30.102 
18:45	26.9	26.9	26.9	60	14.9	0	2	248	0.00	30.104 
18:50	26.7	26.7	26.7	60	14.7	1	4	248	0.00	30.104 
18:55	26.6	26.6	26.6	60	14.6	1	3	248	0.00	30.104 
19:00	26.4	26.4	26.4	61	14.8	1	3	248	0.00	30.100 
19:05	26.3	26.3	26.3	61	14.7	0	3	248	0.00	30.100 
19:10	26.1	26.1	26.1	61	14.5	0	2	248	0.00	30.100 
19:15	26.1	26.1	26.1	61	14.5	0	1	248	0.00	30.099 
19:20	26.0	26.0	26.0	62	14.8	0	1	248	0.00	30.099 
19:25	25.8	25.8	25.8	62	14.6	0	1	248	0.00	30.099 
19:30	25.7	25.7	25.7	62	14.5	0	1	248	0.00	30.095 
19:35	25.6	25.6	25.6	63	14.8	0	0	---	0.00	30.095 
19:40	25.3	25.3	25.3	63	14.5	0	0	---	0.00	30.095 
19:45	25.1	25.1	25.1	64	14.7	0	0	---	0.00	30.087 
19:50	25.0	25.0	25.0	65	14.9	0	1	248	0.00	30.087 
19:55	24.7	24.7	24.7	65	14.6	0	1	248	0.00	30.087 
20:00	24.5	24.5	24.5	65	14.4	0	0	---	0.00	30.084 
20:05	24.2	24.2	24.2	66	14.5	0	0	---	0.00	30.084 
20:10	24.1	24.1	24.1	67	14.8	0	1	248	0.00	30.084 
20:15	23.8	23.8	23.8	68	14.8	0	0	---	0.00	30.080 
20:20	23.6	23.6	23.6	69	14.9	0	1	248	0.00	30.080 
20:25	23.6	23.6	23.6	69	14.9	0	1	248	0.00	30.080 
20:30	23.5	23.5	23.5	70	15.2	0	1	248	0.00	30.068 
20:35	23.5	23.5	23.5	71	15.5	0	1	248	0.00	30.068 
20:40	23.5	23.5	23.5	71	15.5	0	2	248	0.00	30.068 
20:45	23.6	23.6	23.6	72	15.9	0	2	225	0.00	30.054 
20:50	23.8	23.8	23.8	72	16.1	0	2	225	0.00	30.054 
20:55	23.9	23.9	23.9	73	16.5	0	1	225	0.00	30.054 
21:00	24.1	24.1	24.1	73	16.7	0	3	90	0.00	30.051 
21:05	24.2	24.2	24.2	72	16.5	0	1	90	0.00	30.051 
21:10	24.4	24.4	24.4	72	16.7	0	7	45	0.00	30.051 
21:15	24.5	24.5	24.5	72	16.8	0	2	112	0.00	30.037 
21:20	24.7	24.7	24.7	72	17.0	0	2	112	0.00	30.037 
21:25	24.8	24.8	24.8	72	17.1	0	3	45	0.00	30.037 
21:30	24.8	24.8	24.8	72	17.1	1	3	248	0.00	30.037 
21:35	25.1	25.1	25.1	71	17.0	1	4	248	0.00	30.037 
21:40	25.3	25.3	25.3	71	17.2	0	3	248	0.00	30.037 
21:45	25.3	25.3	25.3	71	17.2	0	4	248	0.00	30.035 
21:50	25.4	25.4	25.4	71	17.3	0	4	248	0.00	30.035 
21:55	25.4	25.4	25.4	71	17.3	0	2	270	0.00	30.035 
22:00	25.4	25.4	25.4	71	17.3	0	2	270	0.00	30.029 
22:05	25.6	25.6	25.6	71	17.5	0	3	270	0.00	30.029 
22:10	25.6	25.6	25.6	71	17.5	0	2	270	0.00	30.029 
22:15	25.7	25.7	25.7	71	17.6	0	3	270	0.00	30.022 
22:20	25.7	25.7	25.7	71	17.6	0	4	270	0.00	30.022 
22:25	25.8	25.8	25.8	71	17.7	0	2	248	0.00	30.022 
22:30	25.8	25.8	25.8	71	17.7	0	1	248	0.00	30.018 
22:35	26.0	26.0	26.0	70	17.6	0	2	248	0.00	30.018 
22:40	26.1	26.1	26.1	70	17.7	0	2	248	0.00	30.018 
22:45	26.1	26.1	26.1	70	17.7	0	3	248	0.00	30.015 
22:50	26.3	26.3	26.3	70	17.9	0	3	248	0.00	30.015 
22:55	26.3	26.3	26.3	69	17.5	0	4	248	0.00	30.015 
23:00	26.4	26.4	26.4	69	17.6	1	4	248	0.00	30.001 
23:05	26.4	26.4	26.4	69	17.6	0	4	248	0.00	30.001 
23:10	26.4	26.4	26.4	69	17.6	0	3	248	0.00	30.001 
23:15	26.4	26.4	26.4	69	17.6	1	5	248	0.00	29.986 
23:20	26.4	26.4	26.4	70	18.0	1	3	270	0.00	29.986 
23:25	26.4	26.4	26.4	70	18.0	0	2	248	0.00	29.986 
23:30	26.6	26.6	26.6	70	18.2	0	4	248	0.00	29.989 
23:35	26.6	26.6	26.6	69	17.8	0	4	248	0.00	29.989 
23:40	26.6	26.6	26.6	69	17.8	0	6	225	0.00	29.989 
23:45	26.7	26.7	26.7	69	17.9	1	4	225	0.00	29.983 
23:50	26.7	26.7	26.7	69	17.9	1	4	248	0.00	29.983 
23:55	26.9	26.9	26.9	69	18.1	1	4	248	0.00	29.983 

CoCoRaHS
IN-AL-39
A2 Web Hosting
Creative Commons License
GoDaddy
search engine by freefind advanced

loaded 2018-11-20 15:10:14 • last modified 2010-11-18 10:43:29
Privacy PolicyDisclaimer
• wx.awcolley.com is powered by PmWiki v.2002016 •
• all content (unless otherwise noted) © 2018 A W Colley